Badger Spring Valley, Nevada Weather observations

Data are for 10 minute period ending at time listed.
 Day   Time   Solar   Ave.   Ave.  Ave.  Vector  Max.   Baro.   Total    
  of    of     Rad.   Air    Rel.  Wind   Wind   Wind  Press.  Precip.   
Year   Day            Temp.  Hum.  Speed  Dir.   Gust                    
2014   (PST)  Kw/m2    F      %     mph   deg.    mph    mb.     in.     
-------------------------------------------------------------------------
 208    5:20   0.08   70.9    51    1.2   348     3.1   553.0    0.00 
 208    5:30   0.13   72.5    50    1.6   359     2.9   551.8    0.00 
 208    5:40   0.14   75.1    44    0.9   327     1.8   537.8    0.00 
 208    5:50   0.13   75.8    44    1.6   303     2.8   503.7    0.00 
 208    6:00   0.11   75.7    46    2.3   304     2.9   500.8    0.00 
 208    6:10   0.09   74.5    49    3.3   295     4.5   500.8    0.00 
 208    6:20   0.10   74.3    49    2.5   306     3.1   500.8    0.00 
 208    6:30   0.13   73.9    53    3.2   311     3.9   500.8    0.00 
 208    6:40   0.17   74.9    49    0.5   326     2.3   500.8    0.00 
 208    6:50   0.18   76.5    41    0.5    53     1.8   500.8    0.00 
 208    7:00   0.24   77.6    40    0.5   135     1.7   500.8    0.00 
 208    7:10   0.28   78.7    37    1.1   165     2.6   500.8    0.00 
 208    7:20   0.25   78.9    35    3.0   155     4.3   500.8    0.00 
 208    7:30   0.25   78.6    36    2.3   166     3.9   500.9    0.00 
 208    7:40   0.34   79.0    36    2.9   144     5.3   501.0    0.00 
 208    7:50   0.43   80.2    32    2.9   182     5.0   501.1    0.00 
 208    8:00   0.63   81.5    31    2.5   176     5.0   501.0    0.00 
 208    8:10   0.68   83.2    29    2.2   196     6.1   501.1    0.00 
 208    8:20   0.69   82.6    29    2.8   123     5.7   501.2    0.00 
 208    8:30   0.71   83.4    29    2.1    99     6.1   501.2    0.00 
 208    8:40   0.74   84.5    28    3.1   137     6.1   501.2    0.00 
 208    8:50   0.84   85.5    27    4.6   149     9.1   501.2    0.00 
 208    9:00   0.77   85.4    26    4.8   103    10.0   501.2    0.00 
 208    9:10   0.84   85.7    26    6.5   158    11.8   501.2    0.00 
 208    9:20   0.66   86.3    26    6.8   105    14.2   501.3    0.00 
 208    9:30   0.69   85.4    27    7.4   111    12.8   501.3    0.00 
 208    9:40   1.07   86.2    26    8.4   107    13.5   501.5    0.00 
 208    9:50   0.61   86.0    25    7.5   103    15.1   501.6    0.00 
 208   10:00   0.69   86.1    26    6.0   149    10.8   501.5    0.00 
 208   10:10   0.96   86.7    25    6.1   140    10.6   501.5    0.00 
 208   10:20   1.01   86.8    24    6.3   123    11.2   501.5    0.00 
 208   10:30   1.01   87.8    24    5.9   172    12.5   501.6    0.00 
 208   10:40   1.03   88.4    24    6.4   151    10.4   501.7    0.00 
 208   10:50   1.05   89.3    24    8.0   160    13.6   502.0    0.00 
 208   11:00   1.08   88.8    24    4.9   133    11.5   502.1    0.00 
 208   11:10   1.13   89.8    23    5.9   161    15.9   502.2    0.00 
 208   11:20   1.23   90.3    22    5.8   162    14.7   502.3    0.00 
 208   11:30   1.23   90.1    22    8.0   112    15.4   502.3    0.00 
 208   11:40   1.04   90.2    22    6.2   199    14.5   502.4    0.00 
 208   11:50   1.18   90.7    21    6.8   127    17.7   502.3    0.00 
 208   12:00   0.78   90.8    21    8.4   174    17.2   502.3    0.00 
 208   12:10   0.66   90.2    22   10.7   170    18.5   502.3    0.00 
 208   12:20   0.45   89.7    22    9.6   199    13.6   502.1    0.00 
 208   12:30   0.77   89.0    23   11.9   184    21.0   501.7    0.00 
 208   12:40   1.21   90.3    22   10.5   200    17.7   501.7    0.00 
 208   12:50   1.18   90.9    20   10.7   186    17.4   502.1    0.00 
 208   13:00   0.81   90.4    20    9.1   187    19.4   502.2    0.00 
 208   13:10   0.50   89.4    20   11.7   214    17.6   502.2    0.00 
 208   13:20   0.86   89.9    19   11.7   196    18.6   502.1    0.00 
 208   13:30   0.72   90.1    19   11.8   191    19.1   502.0    0.00 
 208   13:40   0.98   90.6    18   12.1   190    19.4   502.0    0.00 
 208   13:50   1.01   91.4    18   11.1   193    19.1   502.2    0.00 
 208   14:00   0.98   91.4    18   11.4   219    18.7   502.3    0.00 
 208   14:10   0.80   90.7    18   10.4   227    19.1   502.3    0.00 
 208   14:20   0.58   90.1    20   10.8   215    18.3   502.3    0.00 
 208   14:30   0.35   88.5    22   10.2   211    17.9   502.1    0.00 
 208   14:40   0.51   88.1    22    8.8   229    17.2   501.9    0.00 
 208   14:50   0.53   89.3    21    8.3   190    15.6   501.4    0.00 
 208   15:00   0.52   88.5    21   10.4   215    18.6   501.3    0.00 
 208   15:10   0.42   88.8    20    7.1   205    14.5   501.3    0.00 
 208   15:20   0.36   88.4    20    7.2   175    14.0   501.3    0.00 
 208   15:30   0.46   88.5    21    8.6   200    17.8   501.3    0.00 
 208   15:40   0.35   88.1    22   11.5   190    16.5   501.3    0.00 
 208   15:50   0.21   86.6    24    6.8   151    13.6   501.3    0.00 
 208   16:00   0.14   85.0    25    5.9    83    14.4   501.3    0.00 
 208   16:10   0.10   83.7    26    3.8    90     8.6   501.2    0.00 
 208   16:20   0.08   82.8    26    4.8   150    10.2   501.2    0.00 
 208   16:30   0.09   81.9    29   11.2   166    15.6   502.7    0.00 
 208   16:40   0.11   81.0    30   10.6   140    17.0   502.1    0.00 
 208   16:50   0.15   80.6    31    5.6   177     9.9   501.1    0.00 
 208   17:00   0.10   81.0    30    5.9   190     8.5   501.1    0.00 
 208   17:10   0.04   80.6    30    6.5   139    12.3   501.0    0.00 
 208   17:20   0.02   77.6    40   20.0    87    34.2   501.1    0.00 
 208   17:30   0.03   74.0    53   15.0    84    24.7   501.4    0.00 
 208   17:40   0.04   69.4    72    9.9    71    18.0   505.7    0.00 
 208   17:50   0.03   70.0    66    8.1    36    12.1   504.2    0.00 
 208   18:00   0.01   70.7    63   10.2    13    14.9   511.8    0.00 
 208   18:10   0.01   72.2    55    6.7    32     9.9   510.3    0.00 
 208   18:20   0.00   72.7    54    7.7    19    13.1   501.2    0.00 
 208   18:30   0.00   72.5    54    6.9    34    10.4   502.5    0.00 
 208   18:40   0.00   72.3    52    2.7    31     6.4   509.9    0.00 
 208   18:50   0.00   72.2    53    9.0   350    13.5   515.6    0.00 
 208   19:00   0.00   71.3    52   12.8   315    14.9   522.9    0.01 
 208   19:10   0.00   70.7    52   14.8   320    21.3   547.8    0.00 
 208   19:20   0.00   72.0    46   18.1   296    26.2   552.2    0.00 
 208   19:30   0.00   72.2    46    7.9   305    16.7   547.4    0.00 
 208   19:40   0.00   72.1    47    5.6    24    14.3   542.2    0.00 
 208   19:50   0.00   70.7    56   12.2    30    17.0   543.3    0.00 
 208   20:00   0.00   69.5    62   10.8     2    23.4   544.8    0.00 
 208   20:10   0.00   69.5    59   16.9   350    27.3   547.9    0.00 
 208   20:20   0.00   69.5    56   17.2   350    25.6   550.6    0.00 
 208   20:30   0.00   70.2    52   17.6   356    25.7   553.2    0.00 
 208   20:40   0.00   69.6    54   17.8   354    27.7   553.0    0.00 
 208   20:50   0.00   69.4    54   15.1   341    22.4   552.7    0.00 
 208   21:00   0.00   69.7    53   15.0   346    22.9   553.1    0.00 
 208   21:10   0.00   70.1    50   13.3   339    20.4   553.2    0.00 
 208   21:20   0.00   71.2    46   13.6   342    21.9   552.3    0.00 
 208   21:30   0.00   71.6    44   12.6   343    18.5   552.8    0.00 
 208   21:40   0.00   71.8    43   10.9   340    16.8   552.7    0.00 
 208   21:50   0.00   72.5    41   13.6   339    18.1   551.0    0.00 
 208   22:00   0.00   73.2    39   12.3   335    17.9   548.8    0.00 
 208   22:10   0.00   73.7    38   12.5   346    17.8   541.5    0.00 
 208   22:20   0.00   73.9    37   12.3   349    16.1   534.3    0.00 
 208   22:30   0.00   73.8    38   12.1   346    16.6   533.6    0.00 
 208   22:40   0.00   73.4    39   12.1   356    15.9   525.4    0.00 
 208   22:50   0.00   73.7    37   10.1   338    14.2   523.5    0.00 
 208   23:00   0.00   74.3    35    7.5   322    11.1   523.1    0.00 
 208   23:10   0.00   73.6    39    7.7   261    10.2   522.3    0.00 
 208   23:20   0.00   72.9    41    2.6   232     7.2   522.4    0.00 
 208   23:30   0.00   72.1    43    2.6   190     3.9   528.4    0.00 
 208   23:40   0.00   71.3    46    3.6   343     5.5   525.1    0.00 
 208   23:50   0.00   71.1    46    1.9   360     3.0   527.7    0.00 
 209    0:00   0.00   70.6    48    5.2   350     9.5   535.5    0.00 
 209    0:10   0.00   70.8    46    7.6   350    10.6   548.9    0.00 
 209    0:20   0.00   70.8    46    8.8   351    12.3   553.1    0.00 
 209    0:30   0.00   70.8    46    9.0   343    13.2   553.2    0.00 
 209    0:40   0.00   71.0    45    9.2   348    14.1   553.2    0.00 
 209    0:50   0.00   71.9    42    9.8   341    13.1   553.0    0.00 
 209    1:00   0.00   71.8    43    9.4   353    12.9   553.1    0.00 
 209    1:10   0.00   71.7    43    8.7   347    12.3   553.2    0.00 
 209    1:20   0.00   71.7    43    7.0   350    10.0   553.2    0.00 
 209    1:30   0.00   71.4    44    4.4    18     7.5   553.2    0.00 
 209    1:40   0.00   70.3    49    6.7    57     9.1   553.1    0.00 
 209    1:50   0.00   69.0    55    5.1    83     9.0   553.2    0.00 
 209    2:00   0.00   68.5    57    2.5    17     5.4   553.0    0.00 
 209    2:10   0.00   66.8    68    4.0   257     6.4   553.2    0.00 
 209    2:20   0.00   65.9    72    7.0   288    11.8   553.0    0.02 
 209    2:30   0.00   64.1    75    9.9   291    12.9   552.9    0.01 
 209    2:40   0.00   64.2    74   10.5   291    14.1   552.8    0.00 
 209    2:50   0.00   64.3    73   11.4   288    14.0   552.7    0.00 
 209    3:00   0.00   64.6    73   12.2   283    16.7   552.7    0.00 
 209    3:10   0.00   63.9    77   11.8   281    15.3   552.6    0.00 
 209    3:20   0.00   63.9    76   13.1   286    16.8   552.4    0.00 
 209    3:30   0.00   64.6    73   10.9   287    13.6   552.5    0.00 
 209    3:40   0.00   64.7    75    8.1   291    11.2   552.6    0.00 
 209    3:50   0.00   64.5    75    5.9   309     8.9   552.6    0.00 
 209    4:00   0.00   64.9    73    3.6   316     6.7   552.7    0.00 
 209    4:10   0.00   65.1    73    4.5   304     6.1   542.3    0.00 
 209    4:20   0.00   65.3    72    2.1   312     3.7   552.7    0.00 
 209    4:30   0.00   65.7    70    7.0   283     9.9   552.7    0.00 
 209    4:40   0.00   65.2    71    8.5   290    10.4   552.7    0.00 
 209    4:50   0.00   65.8    69    7.7   292    10.0   552.7    0.00 
 209    5:00   0.00   66.9    63    4.8   288     6.4   552.6    0.00 
 209    5:10   0.00   66.5    68    4.1   298     5.8   552.7    0.00 

Return to Badger Spring Valley graphs page.


Western Regional Climate Center,wrcc@dri.edu